Time;durP1;ratioP1;P1;durP2;ratioP2;P2;SDS_P1;SDS_P2;PMS_P1;PMS_P2;Temp;Humidity;BMP_temperature;BMP_pressure;BME280_temperature;BME280_humidity;BME280_pressure;Samples;Min_cycle;Max_cycle;Signal;HPM_P1;HPM_P2
2021/01/06 00:01:26;;;;;;;23.23;15.43;;;2.50;99.90;;;;;;5051732;28;20203;-79
2021/01/06 00:03:52;;;;;;;25.30;16.27;;;2.70;99.90;;;;;;5052295;28;20286;-79
2021/01/06 00:06:24;;;;;;;29.23;16.85;;;2.90;99.90;;;;;;5051084;28;20200;-79
2021/01/06 00:08:51;;;;;;;20.80;14.23;;;2.80;99.90;;;;;;5031828;28;20215;-79
2021/01/06 00:11:18;;;;;;;32.45;14.93;;;2.90;99.90;;;;;;5050274;28;20214;-80
2021/01/06 00:13:45;;;;;;;24.35;15.65;;;2.50;99.90;;;;;;5051805;28;20219;-79
2021/01/06 00:16:12;;;;;;;24.10;15.45;;;2.60;99.90;;;;;;5050523;28;20218;-79
2021/01/06 00:18:38;;;;;;;21.98;14.93;;;2.70;99.90;;;;;;5050232;28;20195;-79
2021/01/06 00:21:05;;;;;;;25.77;15.65;;;2.50;99.90;;;;;;5050081;28;20223;-79
2021/01/06 00:23:32;;;;;;;23.83;16.13;;;2.60;99.90;;;;;;5050606;28;20199;-79
2021/01/06 00:26:00;;;;;;;24.60;15.40;;;2.60;99.90;;;;;;5050674;28;20230;-79
2021/01/06 00:28:26;;;;;;;29.88;17.00;;;2.80;99.90;;;;;;5050686;28;20198;-79
2021/01/06 00:30:56;;;;;;;33.22;18.00;;;2.70;99.90;;;;;;5049810;28;20196;-79
2021/01/06 00:33:25;;;;;;;60.30;18.30;;;2.50;99.90;;;;;;5051046;28;20200;-80
2021/01/06 00:35:53;;;;;;;34.63;16.35;;;2.20;99.90;;;;;;5052280;28;20231;-79
2021/01/06 00:38:20;;;;;;;30.88;14.65;;;2.20;99.90;;;;;;5051042;28;20211;-80
2021/01/06 00:40:46;;;;;;;28.33;17.33;;;2.20;99.90;;;;;;5052259;28;20314;-79
2021/01/06 00:43:16;;;;;;;23.23;14.65;;;2.40;99.90;;;;;;5051619;28;20191;-80
2021/01/06 00:45:43;;;;;;;22.15;15.60;;;1.80;99.90;;;;;;5061955;28;20203;-79
2021/01/06 00:48:10;;;;;;;21.25;14.40;;;2.60;99.90;;;;;;5069134;28;20207;-79
2021/01/06 00:50:37;;;;;;;23.05;15.05;;;2.70;99.90;;;;;;5051378;28;20215;-80
2021/01/06 00:53:08;;;;;;;20.95;14.77;;;2.70;99.90;;;;;;5051807;28;20565;-79
2021/01/06 00:55:34;;;;;;;24.08;15.48;;;2.80;99.90;;;;;;5051983;28;20704;-79
2021/01/06 00:58:01;;;;;;;23.35;14.68;;;2.70;99.90;;;;;;5051101;28;20207;-79
2021/01/06 01:00:31;;;;;;;21.35;15.50;;;2.70;99.90;;;;;;5045481;28;20211;-80
2021/01/06 01:02:59;;;;;;;26.17;17.48;;;2.90;99.90;;;;;;5051601;28;20191;-79
2021/01/06 01:05:27;;;;;;;22.92;14.85;;;2.80;99.90;;;;;;5051281;28;20202;-79
2021/01/06 01:07:53;;;;;;;20.42;14.85;;;2.50;99.90;;;;;;5053981;28;20536;-79
2021/01/06 01:10:29;;;;;;;17.88;12.93;;;2.80;99.90;;;;;;5054713;28;20200;-79
2021/01/06 01:12:56;;;;;;;24.98;16.80;;;2.80;99.90;;;;;;5054293;28;20664;-80
2021/01/06 01:15:25;;;;;;;24.85;15.10;;;2.90;99.90;;;;;;5054770;28;20487;-79
2021/01/06 01:17:53;;;;;;;21.67;14.93;;;2.60;99.90;;;;;;5054253;28;20200;-80
2021/01/06 01:20:21;;;;;;;15.13;11.70;;;2.30;99.90;;;;;;5053453;28;20552;-79
2021/01/06 01:22:48;;;;;;;18.23;12.90;;;2.10;99.90;;;;;;5053922;28;20227;-79
2021/01/06 01:25:19;;;;;;;22.60;13.50;;;2.00;99.90;;;;;;5054261;28;20231;-79
2021/01/06 01:27:46;;;;;;;21.25;13.23;;;1.80;99.90;;;;;;5054296;28;20211;-79
2021/01/06 01:30:15;;;;;;;18.58;11.98;;;1.80;99.90;;;;;;5053989;28;20553;-79
2021/01/06 01:32:44;;;;;;;19.45;13.05;;;2.00;99.90;;;;;;5055208;28;20676;-80
2021/01/06 01:35:13;;;;;;;20.20;14.27;;;2.10;99.90;;;;;;5054809;28;20652;-80
2021/01/06 01:37:42;;;;;;;21.98;14.55;;;2.10;99.90;;;;;;5053888;28;20207;-80
2021/01/06 01:40:10;;;;;;;19.50;14.10;;;2.20;99.90;;;;;;5054292;28;20196;-79
2021/01/06 01:42:36;;;;;;;21.98;13.88;;;2.30;99.90;;;;;;5055496;28;20546;-79
2021/01/06 01:45:06;;;;;;;19.30;14.73;;;2.10;99.90;;;;;;5055028;28;20239;-79
2021/01/06 01:47:41;;;;;;;18.25;13.23;;;2.20;99.90;;;;;;5053983;28;20206;-79
2021/01/06 01:50:08;;;;;;;19.70;14.02;;;2.40;99.90;;;;;;5054781;28;20536;-79
2021/01/06 01:52:39;;;;;;;21.27;13.68;;;2.20;99.90;;;;;;5053377;28;20199;-79
2021/01/06 01:55:09;;;;;;;20.08;12.63;;;2.10;99.90;;;;;;5054334;28;20607;-80
2021/01/06 01:57:41;;;;;;;18.60;13.13;;;2.10;99.90;;;;;;5053648;28;20231;-80
2021/01/06 02:00:14;;;;;;;21.23;14.07;;;2.30;99.90;;;;;;5053843;28;20211;-80
2021/01/06 02:02:48;;;;;;;21.92;13.63;;;2.20;99.90;;;;;;5053274;28;20208;-79
2021/01/06 02:05:20;;;;;;;18.17;12.80;;;2.30;99.90;;;;;;5054456;28;20238;-78
2021/01/06 02:07:55;;;;;;;18.70;12.45;;;2.00;99.90;;;;;;5053128;28;20196;-79
2021/01/06 02:10:29;;;;;;;21.40;14.27;;;2.00;99.90;;;;;;5053334;28;20188;-80
2021/01/06 02:13:04;;;;;;;20.73;13.93;;;2.00;99.90;;;;;;5054250;28;20675;-80
2021/01/06 02:15:39;;;;;;;19.88;13.63;;;2.10;99.90;;;;;;5046885;28;20195;-78
2021/01/06 02:18:08;;;;;;;17.10;13.48;;;2.20;99.90;;;;;;5049889;28;20340;-79
2021/01/06 02:20:36;;;;;;;20.98;13.63;;;2.30;99.90;;;;;;5053459;28;20199;-79
2021/01/06 02:23:05;;;;;;;22.70;13.50;;;2.30;99.90;;;;;;5053593;28;20224;-79
2021/01/06 02:25:39;;;;;;;16.70;12.65;;;2.30;99.90;;;;;;5052449;28;20203;-79
2021/01/06 02:28:08;;;;;;;15.52;11.40;;;2.20;99.90;;;;;;5052931;28;20192;-79
2021/01/06 02:30:35;;;;;;;17.25;12.57;;;1.80;99.90;;;;;;5052023;28;20245;-80
2021/01/06 02:33:04;;;;;;;18.63;12.48;;;1.80;99.90;;;;;;5053863;28;20222;-80
2021/01/06 02:35:31;;;;;;;22.83;14.20;;;2.10;99.90;;;;;;5054069;28;20749;-79
2021/01/06 02:37:58;;;;;;;17.73;13.32;;;2.30;99.90;;;;;;5052446;28;20196;-79
2021/01/06 02:40:26;;;;;;;19.90;12.85;;;2.40;99.90;;;;;;5053076;28;20204;-79
2021/01/06 02:42:54;;;;;;;18.60;13.52;;;2.20;99.90;;;;;;5053763;28;20215;-79
2021/01/06 02:45:21;;;;;;;20.50;14.45;;;2.10;99.90;;;;;;5053765;28;20192;-80
2021/01/06 02:47:51;;;;;;;21.90;13.52;;;2.10;99.90;;;;;;5053451;28;20188;-80
2021/01/06 02:50:23;;;;;;;20.20;13.75;;;2.40;99.90;;;;;;5054127;28;20552;-80
2021/01/06 02:52:56;;;;;;;19.80;14.43;;;2.60;99.90;;;;;;5053557;28;20192;-79
2021/01/06 02:55:27;;;;;;;19.40;14.65;;;2.50;99.90;;;;;;5052609;28;20199;-79
2021/01/06 02:57:57;;;;;;;18.20;11.85;;;2.60;99.90;;;;;;5053098;28;20223;-80
2021/01/06 03:00:26;;;;;;;21.67;13.27;;;2.70;99.90;;;;;;5052419;28;20724;-79
2021/01/06 03:02:54;;;;;;;22.17;14.15;;;2.80;99.90;;;;;;5052765;28;20551;-80
2021/01/06 03:05:27;;;;;;;14.50;11.30;;;2.80;99.90;;;;;;5053497;28;20255;-80
2021/01/06 03:07:55;;;;;;;16.40;13.07;;;2.70;99.90;;;;;;5053774;28;20254;-80
2021/01/06 03:10:22;;;;;;;18.00;13.45;;;2.50;99.90;;;;;;5053540;28;20195;-80
2021/01/06 03:12:52;;;;;;;15.77;11.43;;;2.20;99.90;;;;;;5054123;28;20283;-80
2021/01/06 03:15:21;;;;;;;14.52;11.63;;;2.30;99.90;;;;;;5053508;28;20243;-80
2021/01/06 03:17:49;;;;;;;16.15;11.23;;;2.10;99.90;;;;;;5052919;28;20222;-80
2021/01/06 03:20:22;;;;;;;16.23;11.27;;;2.00;99.90;;;;;;5053056;28;20192;-80
2021/01/06 03:22:51;;;;;;;19.05;11.60;;;1.90;99.90;;;;;;5053810;28;20196;-80
2021/01/06 03:25:18;;;;;;;14.68;11.73;;;1.90;99.90;;;;;;5052419;28;20200;-80
2021/01/06 03:27:49;;;;;;;16.20;11.27;;;1.70;99.90;;;;;;5052696;28;20200;-79
2021/01/06 03:30:21;;;;;;;16.33;11.82;;;1.60;99.90;;;;;;5044120;28;20196;-79
2021/01/06 03:32:54;;;;;;;16.88;11.75;;;1.40;99.90;;;;;;5053400;28;20200;-80
2021/01/06 03:35:26;;;;;;;12.60;10.25;;;1.40;99.90;;;;;;5053472;28;20196;-80
2021/01/06 03:37:55;;;;;;;12.70;10.02;;;1.40;99.90;;;;;;5052383;28;20230;-80
2021/01/06 03:40:26;;;;;;;13.30;10.82;;;1.50;99.90;;;;;;5052231;28;20604;-80
2021/01/06 03:42:53;;;;;;;14.10;10.40;;;1.60;99.90;;;;;;5052923;28;20250;-79
2021/01/06 03:45:27;;;;;;;13.43;10.20;;;1.80;99.90;;;;;;5052779;28;20200;-80
2021/01/06 03:47:57;;;;;;;17.80;11.25;;;2.10;99.90;;;;;;5051438;28;20668;-79
2021/01/06 03:50:30;;;;;;;11.85;9.48;;;1.90;99.90;;;;;;5052359;28;20192;-80
2021/01/06 03:53:06;;;;;;;12.85;9.95;;;2.00;99.90;;;;;;5032945;28;20196;-80
2021/01/06 03:55:48;;;;;;;13.20;9.68;;;2.00;99.90;;;;;;5048993;28;20203;-79
2021/01/06 03:58:36;;;;;;;13.98;9.73;;;2.10;99.90;;;;;;5051533;28;20219;-80
2021/01/06 04:01:12;;;;;;;13.55;9.43;;;2.20;99.90;;;;;;5052584;28;20620;-80
2021/01/06 04:03:50;;;;;;;10.68;9.52;;;2.00;99.90;;;;;;5052637;28;20203;-80
2021/01/06 04:06:19;;;;;;;12.88;8.48;;;2.10;99.90;;;;;;5052116;28;20203;-80
2021/01/06 04:08:50;;;;;;;14.93;11.40;;;2.10;99.90;;;;;;5051736;28;20204;-80
2021/01/06 04:11:22;;;;;;;14.43;11.07;;;1.90;99.90;;;;;;5052091;28;20200;-79
2021/01/06 04:13:48;;;;;;;12.98;9.52;;;1.90;99.90;;;;;;5042868;28;20265;-80
2021/01/06 04:16:16;;;;;;;13.45;10.60;;;2.00;99.90;;;;;;5051764;28;20575;-80
2021/01/06 04:18:43;;;;;;;15.95;11.55;;;2.30;99.90;;;;;;5051913;28;20204;-80
2021/01/06 04:21:09;;;;;;;13.85;9.27;;;2.10;99.90;;;;;;5052033;28;20206;-80
2021/01/06 04:23:36;;;;;;;11.82;8.43;;;2.20;99.90;;;;;;5051942;28;20584;-80
2021/01/06 04:26:03;;;;;;;16.05;9.93;;;2.20;99.90;;;;;;5052134;28;20273;-80
2021/01/06 04:28:33;;;;;;;15.07;10.07;;;2.20;99.90;;;;;;5051849;28;20227;-80
2021/01/06 04:31:02;;;;;;;14.13;9.55;;;2.00;99.90;;;;;;5051767;28;20313;-79
2021/01/06 04:33:32;;;;;;;15.73;10.40;;;1.90;99.90;;;;;;5052564;28;20199;-80
2021/01/06 04:36:01;;;;;;;18.08;11.45;;;2.20;99.90;;;;;;5051994;28;20580;-80
2021/01/06 04:38:30;;;;;;;12.10;9.68;;;1.70;99.90;;;;;;5051666;28;20680;-80
2021/01/06 04:40:59;;;;;;;14.20;9.90;;;1.70;99.90;;;;;;5050607;28;20269;-79
2021/01/06 04:43:32;;;;;;;12.45;10.25;;;1.80;99.90;;;;;;5051829;28;20626;-80
2021/01/06 04:46:21;;;;;;;18.17;10.10;;;2.10;99.90;;;;;;5052782;28;20211;-80
2021/01/06 04:49:12;;;;;;;13.48;10.57;;;2.10;99.90;;;;;;5049768;28;20649;-80
2021/01/06 04:52:00;;;;;;;15.13;10.50;;;2.10;99.90;;;;;;5052074;28;20227;-80
2021/01/06 04:54:52;;;;;;;14.35;10.40;;;1.80;99.90;;;;;;5052247;28;20261;-80
2021/01/06 04:57:39;;;;;;;14.73;11.32;;;1.80;99.90;;;;;;5051892;28;20228;-80
2021/01/06 05:00:24;;;;;;;16.48;10.63;;;1.50;99.90;;;;;;5051429;28;20204;-80
2021/01/06 05:03:15;;;;;;;14.05;10.50;;;1.40;99.90;;;;;;5052517;28;20257;-80
2021/01/06 05:05:57;;;;;;;15.48;10.35;;;1.30;99.90;;;;;;5032355;28;20279;-80
2021/01/06 05:08:30;;;;;;;21.60;13.30;;;1.40;99.90;;;;;;5050698;28;20657;-80
2021/01/06 05:11:04;;;;;;;13.75;11.07;;;1.30;99.90;;;;;;5051650;28;20268;-80
2021/01/06 05:13:36;;;;;;;15.65;11.23;;;1.50;99.90;;;;;;5051989;28;20208;-80
2021/01/06 05:16:06;;;;;;;21.00;12.27;;;1.70;99.90;;;;;;5052553;28;20243;-80
2021/01/06 05:18:33;;;;;;;18.90;13.82;;;1.90;99.90;;;;;;5051300;28;20727;-79
2021/01/06 05:21:06;;;;;;;15.57;10.45;;;1.90;99.90;;;;;;5051277;28;20200;-80
2021/01/06 05:23:36;;;;;;;18.73;10.88;;;2.00;99.90;;;;;;5051823;28;20231;-80
2021/01/06 05:26:04;;;;;;;17.55;11.75;;;1.70;99.90;;;;;;5051855;28;20674;-79
2021/01/06 05:28:31;;;;;;;17.50;12.43;;;1.30;99.90;;;;;;5050972;28;20200;-80
2021/01/06 05:30:58;;;;;;;17.58;10.77;;;1.20;99.90;;;;;;5051605;28;20196;-79
2021/01/06 05:33:29;;;;;;;19.80;12.07;;;1.30;99.90;;;;;;5051282;28;20207;-80
2021/01/06 05:35:56;;;;;;;16.23;11.70;;;1.50;99.90;;;;;;5051372;28;20313;-80
2021/01/06 05:38:23;;;;;;;18.05;11.95;;;1.80;99.90;;;;;;5051028;28;20231;-80
2021/01/06 05:40:50;;;;;;;19.75;13.40;;;1.50;99.90;;;;;;5051553;28;20231;-79
2021/01/06 05:43:39;;;;;;;19.23;12.18;;;1.60;99.90;;;;;;5050806;28;20259;-80
2021/01/06 05:46:09;;;;;;;17.65;11.07;;;1.40;99.90;;;;;;5031432;28;20973;-79
2021/01/06 05:48:39;;;;;;;15.70;11.05;;;1.30;99.90;;;;;;5040662;28;20199;-80
2021/01/06 05:51:13;;;;;;;15.45;11.10;;;1.30;99.90;;;;;;5051199;28;20211;-79
2021/01/06 05:53:45;;;;;;;18.05;11.75;;;1.40;99.90;;;;;;5053345;28;20192;-79
2021/01/06 05:56:25;;;;;;;19.23;12.10;;;2.40;99.90;;;;;;5051776;28;20230;-80
2021/01/06 05:58:56;;;;;;;18.35;12.80;;;1.80;99.90;;;;;;5053731;28;20191;-79
2021/01/06 06:01:37;;;;;;;21.60;12.77;;;2.30;99.90;;;;;;5054486;28;20223;-80
2021/01/06 06:04:32;;;;;;;16.35;12.43;;;2.00;99.90;;;;;;5054370;28;20200;-79
2021/01/06 06:07:14;;;;;;;17.02;11.82;;;1.40;99.90;;;;;;5052093;28;20227;-79
2021/01/06 06:09:53;;;;;;;15.15;10.45;;;1.60;99.90;;;;;;5054561;28;20196;-79
2021/01/06 06:13:07;;;;;;;16.27;12.35;;;1.60;99.90;;;;;;5054785;28;20208;-80
2021/01/06 06:16:07;;;;;;;13.27;10.27;;;1.50;99.90;;;;;;5035247;28;20689;-79
2021/01/06 06:18:49;;;;;;;17.20;12.00;;;1.60;99.90;;;;;;5053746;28;20208;-79
2021/01/06 06:21:27;;;;;;;13.73;10.63;;;1.60;99.90;;;;;;5053470;28;20196;-78
2021/01/06 06:24:10;;;;;;;15.63;11.68;;;1.70;99.90;;;;;;5054802;28;20195;-79
2021/01/06 06:26:47;;;;;;;17.40;12.38;;;1.80;99.90;;;;;;5052973;28;20196;-79
2021/01/06 06:29:21;;;;;;;19.20;12.65;;;1.90;99.90;;;;;;5051528;28;20656;-79
2021/01/06 06:31:51;;;;;;;13.23;9.60;;;1.90;99.90;;;;;;5051511;28;20227;-79
2021/01/06 06:34:26;;;;;;;13.73;10.82;;;1.80;99.90;;;;;;5049577;28;20203;-80
2021/01/06 06:37:05;;;;;;;14.27;10.63;;;1.80;99.90;;;;;;5051570;28;20369;-79
2021/01/06 06:39:33;;;;;;;18.63;11.18;;;1.80;99.90;;;;;;5053889;28;20238;-79
2021/01/06 06:42:19;;;;;;;14.70;10.70;;;1.40;99.90;;;;;;5054416;28;20627;-79
2021/01/06 06:45:00;;;;;;;13.98;10.00;;;1.70;99.90;;;;;;5054308;28;20223;-79
2021/01/06 06:47:43;;;;;;;16.67;10.90;;;1.50;99.90;;;;;;5053288;28;20747;-79
2021/01/06 06:50:51;;;;;;;16.10;10.85;;;1.20;99.90;;;;;;5044773;28;20211;-79
2021/01/06 06:53:30;;;;;;;12.95;10.15;;;1.50;99.90;;;;;;5054135;28;20211;-80
2021/01/06 06:56:14;;;;;;;13.55;9.90;;;1.50;99.90;;;;;;5034077;28;20252;-79
2021/01/06 06:58:49;;;;;;;14.82;11.40;;;1.30;99.90;;;;;;5051005;28;20196;-79
2021/01/06 07:01:19;;;;;;;14.63;11.13;;;1.50;99.90;;;;;;5065836;28;20210;-79
2021/01/06 07:03:57;;;;;;;14.52;11.77;;;1.40;99.90;;;;;;5052913;28;20677;-79
2021/01/06 07:06:25;;;;;;;16.33;11.27;;;1.30;99.90;;;;;;5053019;28;20203;-79
2021/01/06 07:08:54;;;;;;;13.32;10.63;;;1.50;99.90;;;;;;5052195;28;20204;-79
2021/01/06 07:11:28;;;;;;;14.20;9.75;;;1.80;99.90;;;;;;5052901;28;20235;-79
2021/01/06 07:14:01;;;;;;;14.70;10.63;;;1.70;99.90;;;;;;5051377;28;20199;-80
2021/01/06 07:16:55;;;;;;;15.45;10.38;;;1.70;99.90;;;;;;5052833;28;20696;-80
2021/01/06 07:19:26;;;;;;;15.20;10.98;;;1.60;99.90;;;;;;5052406;28;20666;-80
2021/01/06 07:21:59;;;;;;;12.15;10.23;;;1.60;99.90;;;;;;5052212;28;20234;-79
2021/01/06 07:24:27;;;;;;;15.38;10.32;;;1.50;99.90;;;;;;5053043;28;20204;-79
2021/01/06 07:26:57;;;;;;;14.30;10.57;;;1.60;99.90;;;;;;5052160;28;20192;-79
2021/01/06 07:29:31;;;;;;;17.48;10.70;;;1.80;99.90;;;;;;5051822;28;20228;-79
2021/01/06 07:32:02;;;;;;;17.40;11.55;;;1.60;99.90;;;;;;5052364;28;20794;-80
2021/01/06 07:34:42;;;;;;;13.73;10.98;;;1.50;99.90;;;;;;5052275;28;20254;-80
2021/01/06 07:37:24;;;;;;;17.95;11.55;;;1.70;99.90;;;;;;5052411;28;20234;-80
2021/01/06 07:39:58;;;;;;;14.60;9.95;;;1.60;99.90;;;;;;5052107;28;20192;-80
2021/01/06 07:42:38;;;;;;;13.30;10.48;;;1.50;99.90;;;;;;5052358;28;20200;-80
2021/01/06 07:45:27;;;;;;;13.27;10.32;;;1.60;99.90;;;;;;5052596;28;20243;-80
2021/01/06 07:48:02;;;;;;;15.98;10.48;;;1.70;99.90;;;;;;5051931;28;20215;-80
2021/01/06 07:50:30;;;;;;;15.35;11.88;;;1.80;99.90;;;;;;5052855;28;20201;-80
2021/01/06 07:53:01;;;;;;;15.15;11.00;;;1.90;99.90;;;;;;5052078;28;20203;-80
2021/01/06 07:55:35;;;;;;;13.57;10.55;;;1.60;99.90;;;;;;5052408;28;20204;-80
2021/01/06 07:58:05;;;;;;;14.52;10.88;;;1.60;99.90;;;;;;5051540;28;20705;-80
2021/01/06 08:00:40;;;;;;;16.42;10.15;;;1.80;99.90;;;;;;5052034;28;20218;-81
2021/01/06 08:03:21;;;;;;;13.40;10.20;;;1.90;99.90;;;;;;5051891;28;20200;-80
2021/01/06 08:05:56;;;;;;;13.18;9.82;;;1.40;99.90;;;;;;5070539;28;20606;-80
2021/01/06 08:08:24;;;;;;;12.38;10.35;;;1.50;99.90;;;;;;5051460;28;20207;-80
2021/01/06 08:10:51;;;;;;;17.98;11.35;;;1.60;99.90;;;;;;5052382;28;20207;-80
2021/01/06 08:13:26;;;;;;;28.73;19.10;;;1.50;99.90;;;;;;5052063;28;20196;-80
2021/01/06 08:16:10;;;;;;;12.95;10.40;;;1.70;99.90;;;;;;5051499;28;20652;-80
2021/01/06 08:18:45;;;;;;;11.07;9.25;;;1.80;99.90;;;;;;5050616;28;20695;-79
2021/01/06 08:21:21;;;;;;;12.20;9.82;;;1.60;99.90;;;;;;5051486;28;20210;-80
2021/01/06 08:24:06;;;;;;;15.30;10.13;;;1.80;99.90;;;;;;5051932;28;20230;-81
2021/01/06 08:26:34;;;;;;;16.38;10.73;;;1.70;99.90;;;;;;5051571;28;20234;-81
2021/01/06 08:29:14;;;;;;;15.20;11.27;;;1.70;99.90;;;;;;5050014;28;20606;-80
2021/01/06 08:31:42;;;;;;;13.93;9.85;;;1.60;99.90;;;;;;5052600;28;20200;-81
2021/01/06 08:34:20;;;;;;;15.05;10.40;;;1.70;99.90;;;;;;5051128;28;20200;-81
2021/01/06 08:36:54;;;;;;;12.40;10.73;;;1.90;99.90;;;;;;5051772;28;20254;-81
2021/01/06 08:39:23;;;;;;;15.30;11.23;;;2.00;99.90;;;;;;5051638;28;20256;-81
2021/01/06 08:41:51;;;;;;;14.80;11.68;;;2.10;99.90;;;;;;5051190;28;20822;-81
2021/01/06 08:44:48;;;;;;;12.95;10.73;;;1.80;99.90;;;;;;5051848;28;20231;-80
2021/01/06 08:47:31;;;;;;;13.93;10.02;;;1.60;99.90;;;;;;5026523;28;20215;-81
2021/01/06 08:50:23;;;;;;;13.48;9.75;;;1.70;99.90;;;;;;5040504;28;20212;-81
2021/01/06 08:52:51;;;;;;;17.65;14.40;;;1.70;99.90;;;;;;5049741;28;20803;-81
2021/01/06 08:55:24;;;;;;;13.73;12.00;;;1.60;99.90;;;;;;5050925;28;20219;-81
2021/01/06 08:58:03;;;;;;;21.08;15.13;;;1.60;99.90;;;;;;5050390;28;20763;-81
2021/01/06 09:00:35;;;;;;;17.38;12.75;;;1.50;99.90;;;;;;5051292;28;20203;-81
2021/01/06 09:03:12;;;;;;;19.13;14.05;;;1.70;99.90;;;;;;5051409;28;20577;-81
2021/01/06 09:06:01;;;;;;;25.90;19.05;;;1.80;99.90;;;;;;5051588;28;20203;-81
2021/01/06 09:08:31;;;;;;;15.00;11.88;;;1.80;99.90;;;;;;5050316;28;20295;-81
2021/01/06 09:11:15;;;;;;;19.05;13.27;;;2.10;99.90;;;;;;5051734;28;20200;-81
2021/01/06 09:13:45;;;;;;;13.68;11.75;;;2.10;99.90;;;;;;5050191;28;20548;-82
2021/01/06 09:16:16;;;;;;;16.15;12.15;;;2.10;99.90;;;;;;5050447;28;20197;-81
2021/01/06 09:18:49;;;;;;;13.45;11.60;;;2.10;99.90;;;;;;5050656;28;20196;-81
2021/01/06 09:21:21;;;;;;;18.85;15.80;;;1.80;99.90;;;;;;5050312;28;20283;-81
2021/01/06 09:23:51;;;;;;;13.80;9.88;;;2.00;99.90;;;;;;5050527;28;20203;-82
2021/01/06 09:26:21;;;;;;;12.88;9.98;;;1.60;99.90;;;;;;5050712;28;20234;-81
2021/01/06 09:28:57;;;;;;;16.70;14.18;;;1.50;99.90;;;;;;5052541;28;20707;-81
2021/01/06 09:31:23;;;;;;;16.80;11.00;;;1.70;99.90;;;;;;5033962;28;20204;-81
2021/01/06 09:33:52;;;;;;;19.20;15.30;;;1.60;99.90;;;;;;5053757;28;20619;-81
2021/01/06 09:36:19;;;;;;;25.92;17.80;;;1.60;99.90;;;;;;5054334;28;20220;-80
2021/01/06 09:38:49;;;;;;;17.63;15.75;;;1.80;99.90;;;;;;5053401;28;20223;-80
2021/01/06 09:41:21;;;;;;;16.55;11.38;;;1.90;99.90;;;;;;5053692;28;20200;-80
2021/01/06 09:43:54;;;;;;;10.68;8.48;;;1.90;99.90;;;;;;5054642;28;20200;-81
2021/01/06 09:46:29;;;;;;;17.13;14.18;;;1.80;99.90;;;;;;5053741;28;21088;-81
2021/01/06 09:49:01;;;;;;;14.02;11.32;;;1.70;99.90;;;;;;5051210;28;20261;-81
2021/01/06 09:51:29;;;;;;;15.52;12.55;;;1.70;99.90;;;;;;5054213;28;20285;-81
2021/01/06 09:54:02;;;;;;;15.77;13.75;;;1.70;99.90;;;;;;5052970;28;20200;-80
2021/01/06 09:56:31;;;;;;;13.85;12.30;;;1.80;99.90;;;;;;5054304;28;20480;-81
2021/01/06 09:58:58;;;;;;;13.82;8.50;;;1.90;99.90;;;;;;5049148;28;20207;-81
2021/01/06 10:01:31;;;;;;;13.50;10.43;;;1.70;99.90;;;;;;5052901;28;20236;-81
2021/01/06 10:04:03;;;;;;;12.60;10.60;;;1.50;99.90;;;;;;5051698;28;20254;-81
2021/01/06 10:06:44;;;;;;;11.15;8.95;;;1.80;99.90;;;;;;5053837;28;20207;-81
2021/01/06 10:09:18;;;;;;;12.07;9.60;;;1.80;99.90;;;;;;5054038;28;20191;-81
2021/01/06 10:11:57;;;;;;;10.60;9.35;;;2.00;99.90;;;;;;5054182;28;20253;-81
2021/01/06 10:14:37;;;;;;;17.92;9.43;;;2.30;99.90;;;;;;5046460;28;20207;-81
2021/01/06 10:17:07;;;;;;;10.10;8.70;;;2.50;99.90;;;;;;5052696;28;20263;-81
2021/01/06 10:19:41;;;;;;;12.05;10.13;;;2.50;99.90;;;;;;5053818;28;20197;-82
2021/01/06 10:22:26;;;;;;;10.73;9.60;;;2.50;99.90;;;;;;5054367;28;20203;-81
2021/01/06 10:25:16;;;;;;;13.52;10.63;;;2.30;99.90;;;;;;5053419;28;20196;-81
2021/01/06 10:27:57;;;;;;;12.85;11.05;;;2.10;99.90;;;;;;5035669;28;20451;-82
2021/01/06 10:30:25;;;;;;;17.23;14.45;;;2.30;99.90;;;;;;5053283;28;20242;-81
2021/01/06 10:33:09;;;;;;;14.93;12.60;;;2.30;99.90;;;;;;5053360;28;20549;-81
2021/01/06 10:35:43;;;;;;;13.32;9.07;;;2.30;99.90;;;;;;5053041;28;20188;-81
2021/01/06 10:38:29;;;;;;;11.00;9.80;;;2.10;99.90;;;;;;5052079;28;20227;-81
2021/01/06 10:41:11;;;;;;;27.27;21.70;;;2.20;99.90;;;;;;5052978;28;20192;-80
2021/01/06 10:43:42;;;;;;;15.40;13.80;;;2.40;99.90;;;;;;5033971;28;20726;-81
2021/01/06 10:46:53;;;;;;;15.40;13.50;;;2.50;99.90;;;;;;5053375;28;20228;-81
2021/01/06 10:49:50;;;;;;;13.48;11.60;;;2.30;99.90;;;;;;5052213;28;20214;-81
2021/01/06 10:52:52;;;;;;;13.65;11.45;;;2.40;99.90;;;;;;5052873;28;20214;-81
2021/01/06 10:55:37;;;;;;;10.23;8.40;;;2.50;99.90;;;;;;5053072;28;20291;-81
2021/01/06 10:58:18;;;;;;;11.93;8.70;;;2.60;99.90;;;;;;5037401;28;20297;-81
2021/01/06 11:00:50;;;;;;;11.50;9.10;;;2.40;99.90;;;;;;5048942;28;20286;-81
2021/01/06 11:03:50;;;;;;;11.35;8.90;;;2.10;99.90;;;;;;5053151;28;20874;-81
2021/01/06 11:06:32;;;;;;;13.00;9.73;;;2.10;99.90;;;;;;5046423;28;20191;-81
2021/01/06 11:09:36;;;;;;;13.10;9.80;;;2.40;99.90;;;;;;5051998;28;20597;-81
2021/01/06 11:12:33;;;;;;;11.82;9.10;;;2.30;99.90;;;;;;5040723;28;20202;-80
2021/01/06 11:15:33;;;;;;;13.05;9.85;;;2.50;99.90;;;;;;5050775;28;20422;-81
2021/01/06 11:18:16;;;;;;;12.75;8.90;;;2.60;99.90;;;;;;5052223;28;20273;-80
2021/01/06 11:20:49;;;;;;;14.13;10.27;;;2.30;99.90;;;;;;5052588;28;20603;-81
2021/01/06 11:23:42;;;;;;;16.33;12.45;;;2.10;99.90;;;;;;5031528;28;20209;-81
2021/01/06 11:26:51;;;;;;;13.63;10.60;;;2.00;99.90;;;;;;5052324;28;20210;-81
2021/01/06 11:29:42;;;;;;;11.43;8.93;;;1.80;99.90;;;;;;5052145;28;20580;-80
2021/01/06 11:32:32;;;;;;;12.95;9.57;;;2.00;99.90;;;;;;5052712;28;20196;-81
2021/01/06 11:35:29;;;;;;;15.18;10.48;;;2.20;99.90;;;;;;5051852;28;20196;-80
2021/01/06 11:37:59;;;;;;;10.52;7.65;;;2.00;99.90;;;;;;5051355;28;20234;-81
2021/01/06 11:40:46;;;;;;;10.98;8.43;;;1.90;99.90;;;;;;5052522;28;20672;-80
2021/01/06 11:43:33;;;;;;;12.32;9.55;;;2.00;99.90;;;;;;5053034;28;20261;-80
2021/01/06 11:46:11;;;;;;;11.60;10.15;;;2.10;99.90;;;;;;5046586;28;20199;-80
2021/01/06 11:48:38;;;;;;;13.52;10.52;;;2.10;99.90;;;;;;5051868;28;20672;-81
2021/01/06 11:51:19;;;;;;;10.45;8.70;;;2.20;99.90;;;;;;5051726;28;20204;-81
2021/01/06 11:53:58;;;;;;;12.90;8.63;;;2.10;99.90;;;;;;5052266;28;20195;-80
2021/01/06 11:56:32;;;;;;;14.85;11.30;;;2.10;99.90;;;;;;5050825;28;20192;-80
2021/01/06 11:59:17;;;;;;;10.45;8.85;;;2.10;99.90;;;;;;5051261;28;20200;-81
2021/01/06 12:02:02;;;;;;;12.40;10.18;;;2.30;99.90;;;;;;5052012;28;20269;-80
2021/01/06 12:04:47;;;;;;;14.55;11.63;;;2.20;99.90;;;;;;5044448;28;20204;-80
2021/01/06 12:07:31;;;;;;;12.70;11.00;;;2.30;99.90;;;;;;5040069;28;20210;-80
2021/01/06 12:10:07;;;;;;;9.73;8.27;;;2.50;99.90;;;;;;5035966;28;20238;-80
2021/01/06 12:12:55;;;;;;;11.57;8.63;;;2.30;99.90;;;;;;5052792;28;20191;-81
2021/01/06 12:15:42;;;;;;;12.00;8.65;;;2.50;99.90;;;;;;5051233;28;20200;-81
2021/01/06 12:18:29;;;;;;;15.27;11.90;;;2.40;99.90;;;;;;5051005;28;20246;-80
2021/01/06 12:20:57;;;;;;;13.23;10.40;;;2.30;99.90;;;;;;5052256;28;20223;-80
2021/01/06 12:23:40;;;;;;;12.70;11.35;;;2.50;99.90;;;;;;5050684;28;20195;-80
2021/01/06 12:26:42;;;;;;;15.63;12.05;;;2.60;99.90;;;;;;5049640;28;20216;-80
2021/01/06 12:29:15;;;;;;;10.40;9.30;;;2.50;99.90;;;;;;5048882;28;20203;-80
2021/01/06 12:31:48;;;;;;;12.25;10.05;;;2.60;99.90;;;;;;5051316;28;20587;-80
2021/01/06 12:34:23;;;;;;;12.18;8.80;;;2.50;99.90;;;;;;5031776;28;20534;-81
2021/01/06 12:37:22;;;;;;;13.00;10.38;;;2.70;99.90;;;;;;5031999;28;20258;-80
2021/01/06 12:40:07;;;;;;;9.82;7.78;;;2.80;99.90;;;;;;5040225;28;20744;-80
2021/01/06 12:42:38;;;;;;;14.30;10.30;;;2.80;99.90;;;;;;5037627;28;20226;-80
2021/01/06 12:45:17;;;;;;;12.95;9.15;;;2.80;99.90;;;;;;5051663;28;20913;-80
2021/01/06 12:47:56;;;;;;;12.40;10.60;;;2.90;99.90;;;;;;5050656;28;20200;-79
2021/01/06 12:50:27;;;;;;;11.18;9.13;;;2.80;99.90;;;;;;5051085;28;20268;-80
2021/01/06 12:52:57;;;;;;;12.43;8.20;;;2.80;99.90;;;;;;5031569;28;20205;-80
2021/01/06 12:55:33;;;;;;;9.45;8.02;;;2.70;99.90;;;;;;5049184;28;20207;-80
2021/01/06 12:58:11;;;;;;;12.18;10.98;;;2.50;99.90;;;;;;5045268;28;20231;-79
2021/01/06 13:00:41;;;;;;;15.75;11.70;;;2.60;99.90;;;;;;5049586;28;20196;-80
2021/01/06 13:03:26;;;;;;;10.35;9.35;;;2.80;99.90;;;;;;5053538;28;20211;-80
2021/01/06 13:05:59;;;;;;;9.88;8.45;;;2.80;99.90;;;;;;5055416;28;20199;-80
2021/01/06 13:08:38;;;;;;;11.02;9.38;;;2.70;99.90;;;;;;5053955;28;20223;-80
2021/01/06 13:11:17;;;;;;;10.45;8.38;;;2.60;99.90;;;;;;5055109;28;20253;-80
2021/01/06 13:13:46;;;;;;;9.32;7.95;;;2.40;99.90;;;;;;5055112;28;20218;-80
2021/01/06 13:16:25;;;;;;;11.35;7.47;;;2.60;99.90;;;;;;5055053;28;20607;-80
2021/01/06 13:19:19;;;;;;;10.55;7.10;;;2.20;99.90;;;;;;5052446;28;20288;-80